• Join FlightAware (Why Join?)
  • Login
  • US Flag 
12:30PM EST


 

Airport Tracker/Info


-or-


 

Live Flight TrackerFlight Track Log ✈ UCA3599 ✈ 15-Mar-2014 ✈ KROA - KIAD

Flight Track Log - Related Links

Times and Time Zones

All times are in EDT time to prevent confusion due to time zone crossing. See the UCA3599 flight status page for this flight to view local times or setup timezone preferences in your user account.

Time Position Orientation Groundspeed Altitude Reporting Facility
EDT Latitude Longitude Course Direction KTS MPH feet Rate Location/Type
06:10AM 37.2986 -79.9944 113° Southeast 137 158 3,000  Level Washington Center
06:11AM 37.2822 -79.9461 113° Southeast 187 215 4,900 1,500 Climbing Washington Center
06:12AM 37.3186 -79.9006 45° Northeast 187 215 6,400 1,440 Climbing Washington Center
06:13AM 37.3544 -79.8494 49° Northeast 196 226 7,900 1,380 Climbing Washington Center
06:14AM 37.3947 -79.7975 46° Northeast 211 243 9,200 1,200 Climbing Washington Center
06:15AM 37.4442 -79.7286 48° Northeast 222 255 10,400 840 Climbing Washington Center
06:16AM 37.4886 -79.6667 48° Northeast 243 280 11,000 240 Climbing Washington Center
06:17AM 37.5392 -79.5986 47° Northeast 262 302 11,000  Level Washington Center
06:18AM 37.5967 -79.5361 41° Northeast 273 314 11,000  Level Washington Center
06:19AM 37.6578 -79.4789 37° Northeast 272 313 11,000  Level Washington Center
06:20AM 37.7194 -79.4211 37° Northeast 273 314 11,000  Level Washington Center
06:21AM 37.7783 -79.3647 37° Northeast 281 323 11,000  Level Washington Center
06:22AM 37.8500 -79.2956 37° Northeast 278 320 11,000  Level Washington Center
06:23AM 37.9089 -79.2400 37° Northeast 273 314 11,000 -60 Level Washington Center
06:24AM 37.9678 -79.1828 37° Northeast 273 314 10,900 -60 Descending Washington Center
06:25AM 38.0275 -79.1269 36° Northeast 273 314 10,900  Level Washington Center
06:26AM 38.0872 -79.0678 38° Northeast 276 318 11,000  Climbing Washington Center
06:27AM 38.1583 -78.9994 37° Northeast 276 318 11,000  Level Washington Center
06:28AM 38.2189 -78.9414 37° Northeast 276 318 11,000  Level Washington Center
06:29AM 38.2808 -78.8800 38° Northeast 286 329 11,000  Level Washington Center
06:30AM 38.3489 -78.8136 37° Northeast 286 329 11,000  Level Washington Center
06:31AM 38.4108 -78.7525 38° Northeast 285 328 11,000  Level Washington Center
06:32AM 38.4722 -78.6922 38° Northeast 281 323 11,000  Level Washington Center
06:33AM 38.5319 -78.6331 38° Northeast 276 318 11,000  Level Washington Center
06:34AM 38.5931 -78.5742 37° Northeast 275 316 11,000  Level Washington Center
06:35AM 38.6500 -78.5108 41° Northeast 277 319 11,000 -480 Level Washington Center
06:36AM 38.6769 -78.4067 72° East 308 354 10,100 -960 Descending Washington Center
06:37AM 38.7044 -78.3031 71° East 310 357 9,000 -900 Descending Washington Center
06:38AM 38.7606 -78.2517 36° Northeast 250 288 8,300 -1,140 Descending Washington Center
06:39AM 38.8283 -78.2186 21° North 253 291 6,800 -1,140 Descending Washington Center
06:40AM 38.8697 -78.1475 53° Northeast 268 308 6,000 -420 Descending Washington Center
06:41AM 38.8933 -78.0547 72° East 271 312 6,000  Level Washington Center
06:43AM 38.9164 -77.9633 72° East 270 311 6,000  Level Washington Center
06:44AM 38.9442 -77.8539 72° East 270 311 6,100  Climbing Washington Center
06:45AM 38.9664 -77.7614 73° East 275 316 6,100  Level Washington Center
06:46AM 38.9583 -77.6658 96° East 274 315 6,100 -180 Level Washington Center
06:46AM 38.9833 -77.6000 64° Northeast 265 305 5,900 -720 Descending Potomac TRACON
06:47AM 39.0333 -77.5667 27° Northeast 259 298 5,000 -900 Descending Potomac TRACON
06:48AM 39.0833 -77.5500 15° North 239 275 4,200 -1,020 Descending Potomac TRACON
06:49AM 39.0833 -77.4833 90° East 227 261 3,100 -1,080 Descending Potomac TRACON
06:50AM 39.0500 -77.4667 159° South 135 155 2,100 -960 Descending Potomac TRACON
06:51AM 39.0167 -77.4667 180° South 101 116 1,200 -780 Descending Potomac TRACON
06:52AM 38.9833 -77.4667 180° South 101 116 600 -360 Descending Potomac TRACON
06:54AM 38.9581 -77.4739 193° South 73 84 300 -120 Descending Washington Center
06:55AM 38.9503 -77.4733 177° South 44 51 300  Level Washington Center
06:56AM 38.9503 -77.4675 90° East 27 31 300  Level Washington Center
06:57AM 38.9511 -77.4594 82° East 23 26 300  Level Washington Center
06:58AM 38.9500 -77.4606 218° Southwest 12 14 300  Level Washington Center
06:59AM 38.9500 -77.4611 270° West 5 6 300  Level Washington Center
07:00AM 38.9472 -77.4553 121° Southeast 7 8 300  Level Washington Center
07:01AM 38.9569 -77.4419 47° Northeast 30 35 300  Level Washington Center
07:02AM 38.9422 -77.4389 171° South 40 46 300  Level Washington Center
07:03AM 38.9464 -77.4414 335° Northwest 39 45 300  Level Washington Center
07:04AM 38.9478 -77.4406 25° Northeast 17 20 300  Level Washington Center
07:05AM 38.9486 -77.4408 345° North 7 8 300  Level Washington Center
07:06AM 38.9483 -77.4408 180° South 4 5 300  Level Washington Center